San Luis Potosi, Mexico

12:13 AM CDT on September 05, 2015 (GMT -0500)
Ponciano Arriaga International | | Change Station
CLOSE
Current Station
Airport
Location: San Luis Potosi,
Elevation: 6033 ft
Nearby Weather Stations

Elev 6033 ft 22.26 °N, 100.93 °W | Updated 29 minutes ago

Scattered Clouds
Scattered Clouds
64 °F
Feels Like 64 °F
N
9
Wind Variable Wind from SSE

Today
High -- | Low -- °F
--% Chance of Precip.
Yesterday
High -- | Low -- °F
Precip. -- in
7:27 AM 7:56 PM
Waning Gibbous, 52% visible
Pressure 30.25 in
Visibility 10.0 miles
Clouds Few 2000 ft
Scattered Clouds 21000 ft
Dew Point 55 °F
Humidity 73%
Rainfall 0.00 in
Snow Depth Not available.
UV 0 out of 12
Pollen Not available.
Air Quality Not available.
Flu Activity Not available.
METAR MMSP 050444Z 16008KT 10SM FEW020 SCT210 18/13 A3025 RMK 8/501
Pressure 30.25 in
Visibility 10.0 miles
Clouds Few 2000 ft
Scattered Clouds 21000 ft
Dew Point 55 °F
Humidity 73%
Rainfall 0.00 in
Snow Depth Not available.
UV 0 out of 12
Pollen Not available.
Air Quality Not available.
Flu Activity Not available.
METAR MMSP 050444Z 16008KT 10SM FEW020 SCT210 18/13 A3025 RMK 8/501

10-Day Weather Forecast

×

Almanac

Astronomy

Sep. 05, 2015 Rise Set
Actual Time
Civil Twilight
Nautical Twilight
Astronomical Twilight
Moon
Length of Visible Light
Length of Day
Tomorrow will be .
, % of the Moon is Illuminated

Today's Extremes

Country Highs Country Lows

Community

WunderPhotos

Upload Photos

1,852,426 photos uploaded!

WunderBlogs® & News

Nearby

Air Quality

  Air Quality AQ Index Pollutant
Not available.

Snow Depth

Station Depth Elevation

Earthquake Activity

City Distance Mag. Time & Date
Minimum magnitude displayed is 2.5.

Coastal Water Temperatures

Place Temperature

Stations

Nearby Weather Stations

Station Location Temp. Windchill Dew Point Humidity Wind Precip. Elev Updated Type